sensor_id;sensor_type;location;lat;lon;timestamp;P1;durP1;ratioP1;P2;durP2;ratioP2
74904;SDS011;63465;50.862;6.220;2023-05-10T00:00:08;13.43;;;8.70;;
74904;SDS011;63465;50.862;6.220;2023-05-10T00:02:34;12.40;;;8.63;;
74904;SDS011;63465;50.862;6.220;2023-05-10T00:04:59;14.07;;;9.00;;
74904;SDS011;63465;50.862;6.220;2023-05-10T00:07:25;13.10;;;8.97;;
74904;SDS011;63465;50.862;6.220;2023-05-10T00:09:50;15.10;;;8.37;;
74904;SDS011;63465;50.862;6.220;2023-05-10T00:12:15;18.70;;;11.07;;
74904;SDS011;63465;50.862;6.220;2023-05-10T00:14:41;23.87;;;10.67;;
74904;SDS011;63465;50.862;6.220;2023-05-10T00:17:06;24.83;;;11.33;;
74904;SDS011;63465;50.862;6.220;2023-05-10T00:19:31;21.00;;;11.20;;
74904;SDS011;63465;50.862;6.220;2023-05-10T00:21:57;22.10;;;10.73;;
74904;SDS011;63465;50.862;6.220;2023-05-10T00:24:22;21.70;;;10.87;;
74904;SDS011;63465;50.862;6.220;2023-05-10T00:26:47;22.90;;;10.97;;
74904;SDS011;63465;50.862;6.220;2023-05-10T00:29:12;21.53;;;9.93;;
74904;SDS011;63465;50.862;6.220;2023-05-10T00:31:38;18.07;;;11.03;;
74904;SDS011;63465;50.862;6.220;2023-05-10T00:34:03;20.10;;;10.63;;
74904;SDS011;63465;50.862;6.220;2023-05-10T00:36:28;19.93;;;10.33;;
74904;SDS011;63465;50.862;6.220;2023-05-10T00:38:54;19.10;;;9.60;;
74904;SDS011;63465;50.862;6.220;2023-05-10T00:41:19;21.80;;;9.70;;
74904;SDS011;63465;50.862;6.220;2023-05-10T00:43:46;18.20;;;10.00;;
74904;SDS011;63465;50.862;6.220;2023-05-10T00:46:11;15.70;;;9.43;;
74904;SDS011;63465;50.862;6.220;2023-05-10T00:48:37;15.40;;;8.80;;
74904;SDS011;63465;50.862;6.220;2023-05-10T00:51:03;15.60;;;9.70;;
74904;SDS011;63465;50.862;6.220;2023-05-10T00:53:28;20.50;;;10.87;;
74904;SDS011;63465;50.862;6.220;2023-05-10T00:55:56;20.27;;;11.60;;
74904;SDS011;63465;50.862;6.220;2023-05-10T00:58:21;20.63;;;10.77;;
74904;SDS011;63465;50.862;6.220;2023-05-10T01:00:48;20.13;;;11.20;;
74904;SDS011;63465;50.862;6.220;2023-05-10T01:03:15;25.43;;;12.60;;
74904;SDS011;63465;50.862;6.220;2023-05-10T01:05:40;23.30;;;12.37;;
74904;SDS011;63465;50.862;6.220;2023-05-10T01:08:06;23.27;;;11.63;;
74904;SDS011;63465;50.862;6.220;2023-05-10T01:10:33;24.20;;;12.77;;
74904;SDS011;63465;50.862;6.220;2023-05-10T01:12:59;24.00;;;12.30;;
74904;SDS011;63465;50.862;6.220;2023-05-10T01:15:24;30.93;;;13.60;;
74904;SDS011;63465;50.862;6.220;2023-05-10T01:17:50;26.30;;;12.13;;
74904;SDS011;63465;50.862;6.220;2023-05-10T01:20:16;19.33;;;12.43;;
74904;SDS011;63465;50.862;6.220;2023-05-10T01:22:46;22.40;;;11.90;;
74904;SDS011;63465;50.862;6.220;2023-05-10T01:25:31;29.27;;;13.00;;
74904;SDS011;63465;50.862;6.220;2023-05-10T01:28:20;20.37;;;11.80;;
74904;SDS011;63465;50.862;6.220;2023-05-10T01:36:08;21.73;;;12.77;;
74904;SDS011;63465;50.862;6.220;2023-05-10T01:41:13;24.33;;;13.03;;
74904;SDS011;63465;50.862;6.220;2023-05-10T01:43:52;21.77;;;13.83;;
74904;SDS011;63465;50.862;6.220;2023-05-10T01:46:24;24.60;;;13.57;;
74904;SDS011;63465;50.862;6.220;2023-05-10T01:48:57;22.00;;;12.27;;
74904;SDS011;63465;50.862;6.220;2023-05-10T01:51:26;23.30;;;14.00;;
74904;SDS011;63465;50.862;6.220;2023-05-10T01:53:59;23.40;;;13.73;;
74904;SDS011;63465;50.862;6.220;2023-05-10T01:56:27;21.10;;;13.20;;
74904;SDS011;63465;50.862;6.220;2023-05-10T01:58:55;23.80;;;13.13;;
74904;SDS011;63465;50.862;6.220;2023-05-10T02:01:22;24.90;;;13.30;;
74904;SDS011;63465;50.862;6.220;2023-05-10T02:03:51;24.03;;;13.17;;
74904;SDS011;63465;50.862;6.220;2023-05-10T02:06:18;25.90;;;13.47;;
74904;SDS011;63465;50.862;6.220;2023-05-10T02:08:45;22.00;;;12.27;;
74904;SDS011;63465;50.862;6.220;2023-05-10T02:11:13;21.43;;;12.57;;
74904;SDS011;63465;50.862;6.220;2023-05-10T02:13:38;22.60;;;12.67;;
74904;SDS011;63465;50.862;6.220;2023-05-10T02:16:05;19.40;;;12.17;;
74904;SDS011;63465;50.862;6.220;2023-05-10T02:18:32;21.20;;;12.17;;
74904;SDS011;63465;50.862;6.220;2023-05-10T02:20:59;19.40;;;11.50;;
74904;SDS011;63465;50.862;6.220;2023-05-10T02:23:27;20.03;;;11.57;;
74904;SDS011;63465;50.862;6.220;2023-05-10T02:25:54;17.43;;;11.73;;
74904;SDS011;63465;50.862;6.220;2023-05-10T02:28:21;20.03;;;12.37;;
74904;SDS011;63465;50.862;6.220;2023-05-10T02:30:49;25.30;;;12.10;;
74904;SDS011;63465;50.862;6.220;2023-05-10T02:33:15;18.20;;;11.53;;
74904;SDS011;63465;50.862;6.220;2023-05-10T02:35:42;20.50;;;11.87;;
74904;SDS011;63465;50.862;6.220;2023-05-10T02:38:07;22.30;;;12.40;;
74904;SDS011;63465;50.862;6.220;2023-05-10T02:40:35;17.97;;;11.30;;
74904;SDS011;63465;50.862;6.220;2023-05-10T02:43:02;18.00;;;11.40;;
74904;SDS011;63465;50.862;6.220;2023-05-10T02:45:27;16.87;;;10.80;;
74904;SDS011;63465;50.862;6.220;2023-05-10T02:47:56;21.80;;;10.93;;
74904;SDS011;63465;50.862;6.220;2023-05-10T02:50:21;18.77;;;11.83;;
74904;SDS011;63465;50.862;6.220;2023-05-10T02:52:52;25.30;;;11.50;;
74904;SDS011;63465;50.862;6.220;2023-05-10T02:55:22;22.13;;;10.50;;
74904;SDS011;63465;50.862;6.220;2023-05-10T02:57:52;21.33;;;10.33;;
74904;SDS011;63465;50.862;6.220;2023-05-10T03:00:21;23.87;;;11.20;;
74904;SDS011;63465;50.862;6.220;2023-05-10T03:02:47;20.83;;;11.97;;
74904;SDS011;63465;50.862;6.220;2023-05-10T03:05:12;24.10;;;11.40;;
74904;SDS011;63465;50.862;6.220;2023-05-10T03:07:37;20.50;;;10.70;;
74904;SDS011;63465;50.862;6.220;2023-05-10T03:10:03;17.57;;;11.00;;
74904;SDS011;63465;50.862;6.220;2023-05-10T03:18:47;22.53;;;12.20;;
74904;SDS011;63465;50.862;6.220;2023-05-10T03:21:19;33.23;;;12.73;;
74904;SDS011;63465;50.862;6.220;2023-05-10T03:23:50;24.93;;;12.40;;
74904;SDS011;63465;50.862;6.220;2023-05-10T03:26:23;25.30;;;13.80;;
74904;SDS011;63465;50.862;6.220;2023-05-10T03:28:50;26.27;;;13.40;;
74904;SDS011;63465;50.862;6.220;2023-05-10T03:31:18;31.30;;;13.23;;
74904;SDS011;63465;50.862;6.220;2023-05-10T03:33:47;31.73;;;13.47;;
74904;SDS011;63465;50.862;6.220;2023-05-10T03:36:13;24.10;;;12.73;;
74904;SDS011;63465;50.862;6.220;2023-05-10T03:38:39;28.37;;;12.90;;
74904;SDS011;63465;50.862;6.220;2023-05-10T03:41:04;30.57;;;13.20;;
74904;SDS011;63465;50.862;6.220;2023-05-10T03:43:29;30.20;;;12.80;;
74904;SDS011;63465;50.862;6.220;2023-05-10T03:45:55;29.37;;;12.43;;
74904;SDS011;63465;50.862;6.220;2023-05-10T03:48:20;25.67;;;11.97;;
74904;SDS011;63465;50.862;6.220;2023-05-10T03:50:45;30.23;;;12.30;;
74904;SDS011;63465;50.862;6.220;2023-05-10T03:53:10;32.23;;;13.37;;
74904;SDS011;63465;50.862;6.220;2023-05-10T03:55:36;29.00;;;11.20;;
74904;SDS011;63465;50.862;6.220;2023-05-10T03:58:01;27.47;;;11.40;;
74904;SDS011;63465;50.862;6.220;2023-05-10T04:00:27;23.80;;;11.90;;
74904;SDS011;63465;50.862;6.220;2023-05-10T04:02:52;31.23;;;13.03;;
74904;SDS011;63465;50.862;6.220;2023-05-10T04:05:17;20.73;;;11.30;;
74904;SDS011;63465;50.862;6.220;2023-05-10T04:07:42;29.87;;;11.63;;
74904;SDS011;63465;50.862;6.220;2023-05-10T04:10:09;19.70;;;10.10;;
74904;SDS011;63465;50.862;6.220;2023-05-10T04:12:35;27.73;;;10.63;;
74904;SDS011;63465;50.862;6.220;2023-05-10T04:15:00;26.60;;;11.13;;
74904;SDS011;63465;50.862;6.220;2023-05-10T04:17:26;24.30;;;11.60;;
74904;SDS011;63465;50.862;6.220;2023-05-10T04:19:51;22.57;;;9.63;;
74904;SDS011;63465;50.862;6.220;2023-05-10T04:22:19;24.77;;;11.50;;
74904;SDS011;63465;50.862;6.220;2023-05-10T04:24:45;21.00;;;10.13;;
74904;SDS011;63465;50.862;6.220;2023-05-10T04:27:10;26.33;;;11.30;;
74904;SDS011;63465;50.862;6.220;2023-05-10T04:29:36;23.03;;;10.83;;
74904;SDS011;63465;50.862;6.220;2023-05-10T04:32:01;21.43;;;10.97;;
74904;SDS011;63465;50.862;6.220;2023-05-10T04:34:27;28.77;;;11.10;;
74904;SDS011;63465;50.862;6.220;2023-05-10T04:36:52;22.07;;;11.03;;
74904;SDS011;63465;50.862;6.220;2023-05-10T04:39:17;21.40;;;11.20;;
74904;SDS011;63465;50.862;6.220;2023-05-10T04:41:43;23.90;;;11.70;;
74904;SDS011;63465;50.862;6.220;2023-05-10T04:44:08;20.57;;;10.37;;
74904;SDS011;63465;50.862;6.220;2023-05-10T04:46:33;29.60;;;12.17;;
74904;SDS011;63465;50.862;6.220;2023-05-10T04:48:59;18.53;;;11.10;;
74904;SDS011;63465;50.862;6.220;2023-05-10T04:51:24;31.40;;;13.10;;
74904;SDS011;63465;50.862;6.220;2023-05-10T04:53:49;31.07;;;13.30;;
74904;SDS011;63465;50.862;6.220;2023-05-10T04:56:15;22.67;;;11.47;;
74904;SDS011;63465;50.862;6.220;2023-05-10T04:58:41;24.90;;;12.20;;
74904;SDS011;63465;50.862;6.220;2023-05-10T05:01:07;25.07;;;13.40;;
74904;SDS011;63465;50.862;6.220;2023-05-10T05:03:34;30.33;;;12.80;;
74904;SDS011;63465;50.862;6.220;2023-05-10T05:06:00;29.70;;;12.47;;
74904;SDS011;63465;50.862;6.220;2023-05-10T05:08:25;37.80;;;13.73;;
74904;SDS011;63465;50.862;6.220;2023-05-10T05:10:50;31.47;;;14.63;;
74904;SDS011;63465;50.862;6.220;2023-05-10T05:13:16;30.03;;;13.83;;
74904;SDS011;63465;50.862;6.220;2023-05-10T05:15:41;32.33;;;14.00;;
74904;SDS011;63465;50.862;6.220;2023-05-10T05:18:06;28.27;;;14.27;;
74904;SDS011;63465;50.862;6.220;2023-05-10T05:20:32;30.60;;;14.17;;
74904;SDS011;63465;50.862;6.220;2023-05-10T05:22:59;37.13;;;13.87;;
74904;SDS011;63465;50.862;6.220;2023-05-10T05:25:24;35.37;;;14.60;;
74904;SDS011;63465;50.862;6.220;2023-05-10T05:27:50;34.67;;;14.83;;
74904;SDS011;63465;50.862;6.220;2023-05-10T05:30:15;31.80;;;13.53;;
74904;SDS011;63465;50.862;6.220;2023-05-10T05:32:40;27.33;;;13.90;;
74904;SDS011;63465;50.862;6.220;2023-05-10T05:35:06;32.20;;;13.37;;
74904;SDS011;63465;50.862;6.220;2023-05-10T05:37:31;28.70;;;13.50;;
74904;SDS011;63465;50.862;6.220;2023-05-10T05:39:57;30.07;;;13.20;;
74904;SDS011;63465;50.862;6.220;2023-05-10T05:42:22;33.40;;;13.80;;
74904;SDS011;63465;50.862;6.220;2023-05-10T05:44:47;27.63;;;13.60;;
74904;SDS011;63465;50.862;6.220;2023-05-10T05:47:13;33.27;;;14.00;;
74904;SDS011;63465;50.862;6.220;2023-05-10T05:49:38;29.90;;;13.97;;
74904;SDS011;63465;50.862;6.220;2023-05-10T05:52:04;29.33;;;13.17;;
74904;SDS011;63465;50.862;6.220;2023-05-10T05:54:30;32.33;;;12.40;;
74904;SDS011;63465;50.862;6.220;2023-05-10T05:56:59;23.57;;;11.43;;
74904;SDS011;63465;50.862;6.220;2023-05-10T05:59:25;29.13;;;11.73;;
74904;SDS011;63465;50.862;6.220;2023-05-10T06:01:51;23.40;;;10.80;;
74904;SDS011;63465;50.862;6.220;2023-05-10T06:04:17;23.57;;;11.17;;
74904;SDS011;63465;50.862;6.220;2023-05-10T06:06:43;22.60;;;10.80;;
74904;SDS011;63465;50.862;6.220;2023-05-10T06:09:08;18.20;;;9.60;;
74904;SDS011;63465;50.862;6.220;2023-05-10T06:11:34;18.47;;;9.57;;
74904;SDS011;63465;50.862;6.220;2023-05-10T06:14:00;19.23;;;9.47;;
74904;SDS011;63465;50.862;6.220;2023-05-10T06:16:26;18.50;;;9.63;;
74904;SDS011;63465;50.862;6.220;2023-05-10T06:18:52;18.73;;;9.63;;
74904;SDS011;63465;50.862;6.220;2023-05-10T06:21:17;19.60;;;10.10;;
74904;SDS011;63465;50.862;6.220;2023-05-10T06:23:42;15.37;;;8.53;;
74904;SDS011;63465;50.862;6.220;2023-05-10T06:26:08;12.70;;;7.97;;
74904;SDS011;63465;50.862;6.220;2023-05-10T06:28:34;13.67;;;7.33;;
74904;SDS011;63465;50.862;6.220;2023-05-10T06:31:00;15.87;;;7.57;;
74904;SDS011;63465;50.862;6.220;2023-05-10T06:33:25;12.50;;;6.33;;
74904;SDS011;63465;50.862;6.220;2023-05-10T06:35:50;11.03;;;6.80;;
74904;SDS011;63465;50.862;6.220;2023-05-10T06:38:16;13.47;;;6.00;;
74904;SDS011;63465;50.862;6.220;2023-05-10T06:40:41;7.43;;;5.30;;
74904;SDS011;63465;50.862;6.220;2023-05-10T06:43:07;8.57;;;4.40;;
74904;SDS011;63465;50.862;6.220;2023-05-10T06:45:33;4.50;;;3.77;;
74904;SDS011;63465;50.862;6.220;2023-05-10T06:47:58;3.33;;;3.00;;
74904;SDS011;63465;50.862;6.220;2023-05-10T06:50:23;6.13;;;4.10;;
74904;SDS011;63465;50.862;6.220;2023-05-10T06:52:49;6.40;;;4.80;;
74904;SDS011;63465;50.862;6.220;2023-05-10T06:55:14;9.00;;;5.33;;
74904;SDS011;63465;50.862;6.220;2023-05-10T06:57:39;5.50;;;3.70;;
74904;SDS011;63465;50.862;6.220;2023-05-10T07:00:05;5.40;;;4.43;;
74904;SDS011;63465;50.862;6.220;2023-05-10T07:02:30;8.27;;;4.87;;
74904;SDS011;63465;50.862;6.220;2023-05-10T07:04:56;4.40;;;3.60;;
74904;SDS011;63465;50.862;6.220;2023-05-10T07:07:21;5.70;;;3.80;;
74904;SDS011;63465;50.862;6.220;2023-05-10T07:09:46;4.83;;;4.30;;
74904;SDS011;63465;50.862;6.220;2023-05-10T07:12:12;6.63;;;4.90;;
74904;SDS011;63465;50.862;6.220;2023-05-10T07:14:37;5.30;;;4.40;;
74904;SDS011;63465;50.862;6.220;2023-05-10T07:17:03;11.23;;;5.50;;
74904;SDS011;63465;50.862;6.220;2023-05-10T07:19:28;7.40;;;5.63;;
74904;SDS011;63465;50.862;6.220;2023-05-10T07:21:54;9.43;;;5.80;;
74904;SDS011;63465;50.862;6.220;2023-05-10T07:24:20;6.23;;;5.27;;
74904;SDS011;63465;50.862;6.220;2023-05-10T07:26:45;12.70;;;6.00;;
74904;SDS011;63465;50.862;6.220;2023-05-10T07:29:10;9.00;;;6.13;;
74904;SDS011;63465;50.862;6.220;2023-05-10T07:31:36;11.30;;;5.67;;
74904;SDS011;63465;50.862;6.220;2023-05-10T07:34:01;6.47;;;5.33;;
74904;SDS011;63465;50.862;6.220;2023-05-10T07:36:27;8.93;;;5.60;;
74904;SDS011;63465;50.862;6.220;2023-05-10T07:38:52;8.27;;;5.70;;
74904;SDS011;63465;50.862;6.220;2023-05-10T07:41:18;10.80;;;6.10;;
74904;SDS011;63465;50.862;6.220;2023-05-10T07:43:43;10.90;;;6.47;;
74904;SDS011;63465;50.862;6.220;2023-05-10T07:46:09;13.60;;;6.93;;
74904;SDS011;63465;50.862;6.220;2023-05-10T07:48:36;12.90;;;6.97;;
74904;SDS011;63465;50.862;6.220;2023-05-10T07:51:02;19.23;;;8.97;;
74904;SDS011;63465;50.862;6.220;2023-05-10T07:53:27;18.73;;;9.80;;
74904;SDS011;63465;50.862;6.220;2023-05-10T07:55:59;24.07;;;10.47;;
74904;SDS011;63465;50.862;6.220;2023-05-10T07:58:24;26.73;;;11.20;;
74904;SDS011;63465;50.862;6.220;2023-05-10T08:00:50;23.90;;;10.70;;
74904;SDS011;63465;50.862;6.220;2023-05-10T08:03:15;26.03;;;11.80;;
74904;SDS011;63465;50.862;6.220;2023-05-10T08:05:41;26.10;;;11.70;;
74904;SDS011;63465;50.862;6.220;2023-05-10T08:08:06;23.87;;;10.10;;
74904;SDS011;63465;50.862;6.220;2023-05-10T08:10:32;28.63;;;13.07;;
74904;SDS011;63465;50.862;6.220;2023-05-10T08:12:57;26.27;;;12.67;;
74904;SDS011;63465;50.862;6.220;2023-05-10T08:15:23;30.07;;;13.87;;
74904;SDS011;63465;50.862;6.220;2023-05-10T08:17:51;34.77;;;13.83;;
74904;SDS011;63465;50.862;6.220;2023-05-10T08:20:17;33.70;;;13.57;;
74904;SDS011;63465;50.862;6.220;2023-05-10T08:22:44;33.53;;;13.90;;
74904;SDS011;63465;50.862;6.220;2023-05-10T08:25:10;31.63;;;13.97;;
74904;SDS011;63465;50.862;6.220;2023-05-10T08:27:35;38.00;;;13.63;;
74904;SDS011;63465;50.862;6.220;2023-05-10T08:30:00;28.27;;;12.90;;
74904;SDS011;63465;50.862;6.220;2023-05-10T08:32:26;29.43;;;13.90;;
74904;SDS011;63465;50.862;6.220;2023-05-10T08:34:51;29.90;;;12.63;;
74904;SDS011;63465;50.862;6.220;2023-05-10T08:37:16;30.07;;;13.03;;
74904;SDS011;63465;50.862;6.220;2023-05-10T08:39:41;25.13;;;12.10;;
74904;SDS011;63465;50.862;6.220;2023-05-10T08:42:07;33.23;;;13.63;;
74904;SDS011;63465;50.862;6.220;2023-05-10T08:44:34;27.97;;;12.80;;
74904;SDS011;63465;50.862;6.220;2023-05-10T08:47:02;28.77;;;12.23;;
74904;SDS011;63465;50.862;6.220;2023-05-10T08:49:31;28.03;;;12.63;;
74904;SDS011;63465;50.862;6.220;2023-05-10T08:51:58;28.10;;;11.67;;
74904;SDS011;63465;50.862;6.220;2023-05-10T08:54:26;22.70;;;10.80;;
74904;SDS011;63465;50.862;6.220;2023-05-10T08:56:52;14.50;;;7.50;;
74904;SDS011;63465;50.862;6.220;2023-05-10T08:59:18;14.20;;;7.30;;
74904;SDS011;63465;50.862;6.220;2023-05-10T09:01:44;15.60;;;7.50;;
74904;SDS011;63465;50.862;6.220;2023-05-10T09:04:10;12.43;;;7.17;;
74904;SDS011;63465;50.862;6.220;2023-05-10T09:06:36;8.93;;;5.20;;
74904;SDS011;63465;50.862;6.220;2023-05-10T09:09:02;8.97;;;5.50;;
74904;SDS011;63465;50.862;6.220;2023-05-10T09:11:28;9.47;;;6.03;;
74904;SDS011;63465;50.862;6.220;2023-05-10T09:13:55;7.80;;;5.30;;
74904;SDS011;63465;50.862;6.220;2023-05-10T09:16:21;5.30;;;4.33;;
74904;SDS011;63465;50.862;6.220;2023-05-10T09:18:47;4.23;;;3.70;;
74904;SDS011;63465;50.862;6.220;2023-05-10T09:21:12;4.60;;;3.97;;
74904;SDS011;63465;50.862;6.220;2023-05-10T09:23:38;4.30;;;3.80;;
74904;SDS011;63465;50.862;6.220;2023-05-10T09:26:08;6.80;;;4.60;;
74904;SDS011;63465;50.862;6.220;2023-05-10T09:28:33;6.10;;;4.20;;
74904;SDS011;63465;50.862;6.220;2023-05-10T09:31:14;4.43;;;4.03;;
74904;SDS011;63465;50.862;6.220;2023-05-10T09:33:46;5.37;;;3.90;;
74904;SDS011;63465;50.862;6.220;2023-05-10T09:36:13;6.90;;;5.13;;
74904;SDS011;63465;50.862;6.220;2023-05-10T09:38:45;8.37;;;4.60;;
74904;SDS011;63465;50.862;6.220;2023-05-10T09:41:20;4.83;;;4.20;;
74904;SDS011;63465;50.862;6.220;2023-05-10T09:43:47;5.47;;;4.00;;
74904;SDS011;63465;50.862;6.220;2023-05-10T09:46:13;5.37;;;4.20;;
74904;SDS011;63465;50.862;6.220;2023-05-10T09:48:42;4.73;;;3.97;;
74904;SDS011;63465;50.862;6.220;2023-05-10T09:51:18;4.77;;;4.00;;
74904;SDS011;63465;50.862;6.220;2023-05-10T09:53:47;7.13;;;3.60;;
74904;SDS011;63465;50.862;6.220;2023-05-10T09:56:32;3.77;;;3.40;;
74904;SDS011;63465;50.862;6.220;2023-05-10T09:59:02;5.87;;;3.87;;
74904;SDS011;63465;50.862;6.220;2023-05-10T10:01:28;4.00;;;3.40;;
74904;SDS011;63465;50.862;6.220;2023-05-10T10:03:54;3.97;;;3.17;;
74904;SDS011;63465;50.862;6.220;2023-05-10T10:06:19;3.70;;;3.40;;
74904;SDS011;63465;50.862;6.220;2023-05-10T10:08:45;3.20;;;3.00;;
74904;SDS011;63465;50.862;6.220;2023-05-10T10:11:11;3.33;;;3.07;;
74904;SDS011;63465;50.862;6.220;2023-05-10T10:13:36;6.17;;;3.43;;
74904;SDS011;63465;50.862;6.220;2023-05-10T10:16:02;3.10;;;2.83;;
74904;SDS011;63465;50.862;6.220;2023-05-10T10:18:27;3.37;;;3.07;;
74904;SDS011;63465;50.862;6.220;2023-05-10T10:20:55;3.10;;;2.80;;
74904;SDS011;63465;50.862;6.220;2023-05-10T10:23:21;3.07;;;2.70;;
74904;SDS011;63465;50.862;6.220;2023-05-10T10:25:46;2.67;;;2.47;;
74904;SDS011;63465;50.862;6.220;2023-05-10T10:28:24;2.33;;;2.23;;
74904;SDS011;63465;50.862;6.220;2023-05-10T10:30:59;2.53;;;2.40;;
74904;SDS011;63465;50.862;6.220;2023-05-10T10:36:20;1.80;;;1.70;;
74904;SDS011;63465;50.862;6.220;2023-05-10T10:41:26;2.30;;;1.60;;
74904;SDS011;63465;50.862;6.220;2023-05-10T10:57:48;2.13;;;1.60;;
74904;SDS011;63465;50.862;6.220;2023-05-10T11:00:26;2.47;;;2.30;;
74904;SDS011;63465;50.862;6.220;2023-05-10T11:13:29;1.50;;;1.40;;
74904;SDS011;63465;50.862;6.220;2023-05-10T11:15:55;1.40;;;1.40;;
74904;SDS011;63465;50.862;6.220;2023-05-10T11:18:28;1.60;;;1.60;;
74904;SDS011;63465;50.862;6.220;2023-05-10T11:26:08;3.00;;;2.00;;
74904;SDS011;63465;50.862;6.220;2023-05-10T11:28:41;2.13;;;2.03;;
74904;SDS011;63465;50.862;6.220;2023-05-10T11:31:12;1.60;;;1.60;;
74904;SDS011;63465;50.862;6.220;2023-05-10T11:33:42;1.40;;;1.40;;
74904;SDS011;63465;50.862;6.220;2023-05-10T11:36:15;1.43;;;1.33;;
74904;SDS011;63465;50.862;6.220;2023-05-10T11:38:41;1.33;;;1.33;;
74904;SDS011;63465;50.862;6.220;2023-05-10T11:41:10;1.30;;;1.20;;
74904;SDS011;63465;50.862;6.220;2023-05-10T11:43:37;1.40;;;1.30;;
74904;SDS011;63465;50.862;6.220;2023-05-10T11:46:07;1.40;;;1.30;;
74904;SDS011;63465;50.862;6.220;2023-05-10T11:48:34;1.90;;;1.80;;
74904;SDS011;63465;50.862;6.220;2023-05-10T11:51:00;1.83;;;1.73;;
74904;SDS011;63465;50.862;6.220;2023-05-10T11:53:27;2.00;;;1.60;;
74904;SDS011;63465;50.862;6.220;2023-05-10T11:55:52;1.90;;;1.80;;
74904;SDS011;63465;50.862;6.220;2023-05-10T11:58:18;2.40;;;1.70;;
74904;SDS011;63465;50.862;6.220;2023-05-10T12:00:44;1.90;;;1.80;;
74904;SDS011;63465;50.862;6.220;2023-05-10T12:03:10;1.97;;;1.80;;
74904;SDS011;63465;50.862;6.220;2023-05-10T12:05:35;3.60;;;2.40;;
74904;SDS011;63465;50.862;6.220;2023-05-10T12:08:14;2.40;;;2.30;;
74904;SDS011;63465;50.862;6.220;2023-05-10T12:10:41;2.43;;;2.33;;
74904;SDS011;63465;50.862;6.220;2023-05-10T12:13:13;1.93;;;1.83;;
74904;SDS011;63465;50.862;6.220;2023-05-10T12:15:39;2.27;;;2.13;;
74904;SDS011;63465;50.862;6.220;2023-05-10T12:18:05;2.47;;;2.27;;
74904;SDS011;63465;50.862;6.220;2023-05-10T12:20:30;3.40;;;3.10;;
74904;SDS011;63465;50.862;6.220;2023-05-10T12:22:56;3.97;;;3.50;;
74904;SDS011;63465;50.862;6.220;2023-05-10T12:25:23;5.33;;;3.43;;
74904;SDS011;63465;50.862;6.220;2023-05-10T12:27:54;3.47;;;3.20;;
74904;SDS011;63465;50.862;6.220;2023-05-10T12:32:50;5.57;;;4.00;;
74904;SDS011;63465;50.862;6.220;2023-05-10T12:35:16;5.60;;;3.70;;
74904;SDS011;63465;50.862;6.220;2023-05-10T12:37:44;6.40;;;4.93;;
74904;SDS011;63465;50.862;6.220;2023-05-10T12:40:10;4.47;;;3.77;;
74904;SDS011;63465;50.862;6.220;2023-05-10T12:42:36;4.57;;;3.70;;
74904;SDS011;63465;50.862;6.220;2023-05-10T12:45:03;5.73;;;4.20;;
74904;SDS011;63465;50.862;6.220;2023-05-10T12:47:30;5.23;;;3.87;;
74904;SDS011;63465;50.862;6.220;2023-05-10T12:49:56;6.60;;;4.43;;
74904;SDS011;63465;50.862;6.220;2023-05-10T12:52:21;8.60;;;4.10;;
74904;SDS011;63465;50.862;6.220;2023-05-10T12:54:46;6.40;;;4.00;;
74904;SDS011;63465;50.862;6.220;2023-05-10T12:57:12;8.07;;;5.33;;
74904;SDS011;63465;50.862;6.220;2023-05-10T12:59:38;6.10;;;4.70;;
74904;SDS011;63465;50.862;6.220;2023-05-10T13:02:03;4.43;;;4.03;;
74904;SDS011;63465;50.862;6.220;2023-05-10T13:04:28;6.40;;;3.97;;
74904;SDS011;63465;50.862;6.220;2023-05-10T13:06:54;3.47;;;3.00;;
74904;SDS011;63465;50.862;6.220;2023-05-10T13:09:23;3.60;;;3.30;;
74904;SDS011;63465;50.862;6.220;2023-05-10T13:11:48;3.90;;;3.47;;
74904;SDS011;63465;50.862;6.220;2023-05-10T13:14:14;4.63;;;3.70;;
74904;SDS011;63465;50.862;6.220;2023-05-10T13:16:39;3.67;;;3.37;;
74904;SDS011;63465;50.862;6.220;2023-05-10T13:19:04;3.67;;;3.10;;
74904;SDS011;63465;50.862;6.220;2023-05-10T13:21:30;5.33;;;3.60;;
74904;SDS011;63465;50.862;6.220;2023-05-10T13:23:55;3.17;;;2.87;;
74904;SDS011;63465;50.862;6.220;2023-05-10T13:26:20;3.20;;;2.90;;
74904;SDS011;63465;50.862;6.220;2023-05-10T13:28:46;3.70;;;3.40;;
74904;SDS011;63465;50.862;6.220;2023-05-10T13:31:11;3.13;;;2.87;;
74904;SDS011;63465;50.862;6.220;2023-05-10T13:33:36;6.90;;;3.13;;
74904;SDS011;63465;50.862;6.220;2023-05-10T13:36:02;4.87;;;3.30;;
74904;SDS011;63465;50.862;6.220;2023-05-10T13:38:27;3.60;;;3.30;;
74904;SDS011;63465;50.862;6.220;2023-05-10T13:40:52;3.70;;;2.90;;
74904;SDS011;63465;50.862;6.220;2023-05-10T13:43:18;4.30;;;3.20;;
74904;SDS011;63465;50.862;6.220;2023-05-10T13:45:44;6.27;;;3.50;;
74904;SDS011;63465;50.862;6.220;2023-05-10T13:48:09;10.70;;;3.83;;
74904;SDS011;63465;50.862;6.220;2023-05-10T13:50:34;3.40;;;3.10;;
74904;SDS011;63465;50.862;6.220;2023-05-10T13:52:59;3.27;;;2.97;;
74904;SDS011;63465;50.862;6.220;2023-05-10T13:55:25;4.13;;;3.50;;
74904;SDS011;63465;50.862;6.220;2023-05-10T13:57:50;3.13;;;2.80;;
74904;SDS011;63465;50.862;6.220;2023-05-10T14:00:15;4.67;;;3.10;;
74904;SDS011;63465;50.862;6.220;2023-05-10T14:02:41;2.90;;;2.60;;
74904;SDS011;63465;50.862;6.220;2023-05-10T14:05:06;5.40;;;3.10;;
74904;SDS011;63465;50.862;6.220;2023-05-10T14:07:32;2.97;;;2.77;;
74904;SDS011;63465;50.862;6.220;2023-05-10T14:09:58;2.70;;;2.50;;
74904;SDS011;63465;50.862;6.220;2023-05-10T14:12:23;3.10;;;2.80;;
74904;SDS011;63465;50.862;6.220;2023-05-10T14:14:48;4.80;;;3.03;;
74904;SDS011;63465;50.862;6.220;2023-05-10T14:17:14;3.07;;;2.77;;
74904;SDS011;63465;50.862;6.220;2023-05-10T14:19:39;4.57;;;2.70;;
74904;SDS011;63465;50.862;6.220;2023-05-10T14:22:04;3.23;;;2.93;;
74904;SDS011;63465;50.862;6.220;2023-05-10T14:24:29;4.63;;;3.10;;
74904;SDS011;63465;50.862;6.220;2023-05-10T14:26:55;3.40;;;3.10;;
74904;SDS011;63465;50.862;6.220;2023-05-10T14:29:20;5.33;;;3.40;;
74904;SDS011;63465;50.862;6.220;2023-05-10T14:31:46;4.00;;;3.63;;
74904;SDS011;63465;50.862;6.220;2023-05-10T14:34:12;10.43;;;3.70;;
74904;SDS011;63465;50.862;6.220;2023-05-10T14:36:37;3.90;;;3.40;;
74904;SDS011;63465;50.862;6.220;2023-05-10T14:39:02;7.20;;;4.70;;
74904;SDS011;63465;50.862;6.220;2023-05-10T14:41:28;3.20;;;2.90;;
74904;SDS011;63465;50.862;6.220;2023-05-10T14:43:55;8.63;;;3.30;;
74904;SDS011;63465;50.862;6.220;2023-05-10T14:46:20;4.53;;;3.00;;
74904;SDS011;63465;50.862;6.220;2023-05-10T14:48:45;5.67;;;3.63;;
74904;SDS011;63465;50.862;6.220;2023-05-10T14:51:11;4.73;;;2.30;;
74904;SDS011;63465;50.862;6.220;2023-05-10T14:53:36;2.77;;;2.40;;
74904;SDS011;63465;50.862;6.220;2023-05-10T14:56:01;2.97;;;2.40;;
74904;SDS011;63465;50.862;6.220;2023-05-10T14:58:27;2.70;;;2.50;;
74904;SDS011;63465;50.862;6.220;2023-05-10T15:00:53;3.10;;;2.80;;
74904;SDS011;63465;50.862;6.220;2023-05-10T15:03:18;5.00;;;3.80;;
74904;SDS011;63465;50.862;6.220;2023-05-10T15:05:43;5.17;;;3.17;;
74904;SDS011;63465;50.862;6.220;2023-05-10T15:08:09;4.30;;;3.60;;
74904;SDS011;63465;50.862;6.220;2023-05-10T15:10:34;3.47;;;2.90;;
74904;SDS011;63465;50.862;6.220;2023-05-10T15:13:00;3.30;;;2.93;;
74904;SDS011;63465;50.862;6.220;2023-05-10T15:15:26;3.40;;;3.10;;
74904;SDS011;63465;50.862;6.220;2023-05-10T15:17:51;3.13;;;2.73;;
74904;SDS011;63465;50.862;6.220;2023-05-10T15:20:16;3.40;;;3.10;;